Time;durP1;ratioP1;P1;durP2;ratioP2;P2;SDS_P1;SDS_P2;PMS_P1;PMS_P2;Temp;Humidity;BMP_temperature;BMP_pressure;BME280_temperature;BME280_humidity;BME280_pressure;Samples;Min_cycle;Max_cycle;Signal;HPM_P1;HPM_P2
2024/01/11 00:00:14;;;;;;;2.87;2.63;;;;;;;-3.02;100.00;-23729.31;5030833;28;20223;-66
2024/01/11 00:02:40;;;;;;;3.07;2.40;;;;;;;-3.34;100.00;-23720.25;5030962;28;20222;-64
2024/01/11 00:05:06;;;;;;;4.93;2.70;;;;;;;-3.44;100.00;-23717.38;5030679;28;20179;-65
2024/01/11 00:07:32;;;;;;;2.30;2.10;;;;;;;-3.09;100.00;-23727.44;5030566;28;20206;-63
2024/01/11 00:09:57;;;;;;;3.20;2.00;;;;;;;-3.16;100.00;-23725.41;5030542;28;20705;-65
2024/01/11 00:12:22;;;;;;;2.57;2.37;;;;;;;-3.21;100.00;-23724.13;5030472;28;20659;-65
2024/01/11 00:14:48;;;;;;;1.90;1.80;;;;;;;-2.98;100.00;-23730.59;5030632;28;20181;-66
2024/01/11 00:17:13;;;;;;;1.83;1.73;;;;;;;-3.30;100.00;-23721.41;5030938;28;20231;-66
2024/01/11 00:19:39;;;;;;;2.73;2.53;;;;;;;-3.08;100.00;-23727.72;5030215;28;20182;-63
2024/01/11 00:22:04;;;;;;;2.13;2.03;;;;;;;-3.45;100.00;-23717.09;5030472;28;20289;-67
2024/01/11 00:24:29;;;;;;;3.60;3.07;;;;;;;-3.15;100.00;-23725.84;5030964;28;20302;-65
2024/01/11 00:26:55;;;;;;;2.90;2.37;;;;;;;-3.08;100.00;-23727.72;5030328;28;20222;-64
2024/01/11 00:29:20;;;;;;;3.00;2.80;;;;;;;-3.34;100.00;-23720.25;5030767;28;20208;-65
2024/01/11 00:31:46;;;;;;;4.17;2.17;;;;;;;-3.12;100.00;-23726.56;5030283;28;20618;-63
2024/01/11 00:34:11;;;;;;;3.63;3.17;;;;;;;-3.36;100.00;-23719.66;5030261;28;20181;-64
2024/01/11 00:36:36;;;;;;;4.60;3.07;;;;;;;-3.18;100.00;-23724.84;5030658;28;20172;-68
2024/01/11 00:39:02;;;;;;;2.33;2.23;;;;;;;-3.24;100.00;-23723.13;5029979;28;20211;-63
2024/01/11 00:41:27;;;;;;;2.17;2.07;;;;;;;-3.41;100.00;-23718.38;5030369;28;20187;-65
2024/01/11 00:43:53;;;;;;;2.63;2.43;;;;;;;-3.20;100.00;-23724.28;5030272;28;20256;-64
2024/01/11 00:46:19;;;;;;;1.50;1.40;;;;;;;-3.30;100.00;-23721.41;5029349;28;20184;-63
2024/01/11 00:48:44;;;;;;;5.93;2.67;;;;;;;-3.28;100.00;-23721.97;5029957;28;20171;-64
2024/01/11 00:51:09;;;;;;;2.53;2.37;;;;;;;-3.18;100.00;-23724.84;5029283;28;20694;-62
2024/01/11 00:53:35;;;;;;;6.20;4.10;;;;;;;-3.52;100.00;-23715.22;5030519;28;20603;-64
2024/01/11 00:56:01;;;;;;;1.90;1.80;;;;;;;-3.29;100.00;-23721.69;5031610;28;20201;-65
2024/01/11 00:58:26;;;;;;;1.43;1.33;;;;;;;-3.09;100.00;-23727.28;5032083;28;20274;-64
2024/01/11 01:00:53;;;;;;;1.60;1.50;;;;;;;-3.63;100.00;-23712.19;5038296;28;20646;-63
2024/01/11 01:03:20;;;;;;;2.60;2.50;;;;;;;-3.32;100.00;-23720.97;5033736;28;20185;-66
2024/01/11 01:05:46;;;;;;;3.30;3.00;;;;;;;-3.32;100.00;-23720.81;5033414;28;20193;-64
2024/01/11 01:08:11;;;;;;;2.23;2.13;;;;;;;-3.42;100.00;-23718.09;5033279;28;20170;-62
2024/01/11 01:10:37;;;;;;;2.40;2.30;;;;;;;-3.52;100.00;-23715.22;5033405;28;20255;-65
2024/01/11 01:13:02;;;;;;;1.60;1.50;;;;;;;-3.71;100.00;-23709.88;5032533;28;20665;-63
2024/01/11 01:15:28;;;;;;;2.23;2.03;;;;;;;-3.78;100.00;-23707.72;5033340;28;20180;-66
2024/01/11 01:17:53;;;;;;;1.97;1.87;;;;;;;-3.76;100.00;-23708.44;5031611;28;20227;-62
2024/01/11 01:20:18;;;;;;;2.07;1.97;;;;;;;-3.50;100.00;-23715.63;5032967;28;20180;-63
2024/01/11 01:22:44;;;;;;;2.80;2.60;;;;;;;-3.86;100.00;-23705.56;5033531;28;20246;-66
2024/01/11 01:25:09;;;;;;;1.67;1.57;;;;;;;-3.59;100.00;-23713.19;5033231;28;20226;-64
2024/01/11 01:27:35;;;;;;;1.77;1.67;;;;;;;-3.78;100.00;-23707.88;5033085;28;20250;-63
2024/01/11 01:30:00;;;;;;;3.10;2.80;;;;;;;-3.85;100.00;-23705.84;5031721;28;20290;-64
2024/01/11 01:32:25;;;;;;;1.90;1.80;;;;;;;-3.73;100.00;-23709.31;5032953;28;20229;-65
2024/01/11 01:34:51;;;;;;;2.93;2.67;;;;;;;-3.58;100.00;-23713.63;5033514;28;20641;-64
2024/01/11 01:37:16;;;;;;;1.80;1.63;;;;;;;-3.92;100.00;-23703.84;5033412;28;20234;-62
2024/01/11 01:39:42;;;;;;;2.13;2.03;;;;;;;-3.88;100.00;-23705.00;5033196;28;20267;-66
2024/01/11 01:42:07;;;;;;;1.50;1.40;;;;;;;-3.68;100.00;-23710.75;5033035;28;20170;-62
2024/01/11 01:44:33;;;;;;;2.07;1.87;;;;;;;-3.75;100.00;-23708.59;5032822;28;20183;-66
2024/01/11 01:46:59;;;;;;;2.33;2.10;;;;;;;-3.98;100.00;-23702.13;5032530;28;20596;-63
2024/01/11 01:49:25;;;;;;;1.70;1.60;;;;;;;-3.76;100.00;-23708.44;5033397;28;20647;-65
2024/01/11 01:51:53;;;;;;;1.97;1.87;;;;;;;-3.80;100.00;-23707.16;5032788;28;20221;-63
2024/01/11 01:54:20;;;;;;;2.27;2.13;;;;;;;-3.71;100.00;-23709.75;5032797;28;20245;-62
2024/01/11 01:56:47;;;;;;;3.03;2.73;;;;;;;-3.72;100.00;-23709.59;5032667;28;20258;-68
2024/01/11 01:59:13;;;;;;;1.90;1.80;;;;;;;-3.74;100.00;-23709.03;5032667;28;20687;-65
2024/01/11 02:01:39;;;;;;;1.50;1.40;;;;;;;-3.76;100.00;-23708.31;5032065;28;20204;-63
2024/01/11 02:04:05;;;;;;;2.17;2.03;;;;;;;-3.82;100.00;-23706.72;5037769;28;20176;-66
2024/01/11 02:06:33;;;;;;;2.50;2.30;;;;;;;-3.81;100.00;-23706.88;5032606;28;20168;-63
2024/01/11 02:09:00;;;;;;;3.93;2.50;;;;;;;-4.07;100.00;-23699.53;5031785;28;20656;-64
2024/01/11 02:11:26;;;;;;;2.00;1.90;;;;;;;-3.90;100.00;-23704.28;5032667;28;20220;-62
2024/01/11 02:13:53;;;;;;;3.50;2.97;;;;;;;-4.19;100.00;-23696.22;5031956;28;20593;-64
2024/01/11 02:16:18;;;;;;;1.60;1.50;;;;;;;-3.70;100.00;-23710.03;5032259;28;20667;-66
2024/01/11 02:18:44;;;;;;;3.50;3.20;;;;;;;-4.04;100.00;-23700.38;5032640;28;20252;-64
2024/01/11 02:21:12;;;;;;;1.80;1.70;;;;;;;-3.97;100.00;-23702.41;5032414;28;20262;-63
2024/01/11 02:23:49;;;;;;;2.33;2.17;;;;;;;-3.86;100.00;-23705.44;5032345;28;20213;-66
2024/01/11 02:26:14;;;;;;;2.07;1.97;;;;;;;-3.89;100.00;-23704.72;5031068;28;20177;-65
2024/01/11 02:28:44;;;;;;;2.23;2.00;;;;;;;-3.94;100.00;-23703.28;5031680;28;20180;-63
2024/01/11 02:31:10;;;;;;;1.40;1.30;;;;;;;-3.99;100.00;-23701.84;5031850;28;20197;-63
2024/01/11 02:33:36;;;;;;;1.60;1.50;;;;;;;-4.23;100.00;-23695.06;5030098;28;20560;-64
2024/01/11 02:36:01;;;;;;;1.77;1.67;;;;;;;-3.98;100.00;-23702.13;5031960;28;20185;-66
2024/01/11 02:38:27;;;;;;;2.27;2.10;;;;;;;-4.01;100.00;-23701.25;5031645;28;20175;-63
2024/01/11 02:40:54;;;;;;;1.53;1.43;;;;;;;-3.99;100.00;-23701.69;5031594;28;20181;-66
2024/01/11 02:43:19;;;;;;;2.60;2.10;;;;;;;-4.02;100.00;-23700.97;5031534;28;20175;-66
2024/01/11 02:45:45;;;;;;;1.63;1.53;;;;;;;-4.05;100.00;-23700.25;5031458;28;20185;-65
2024/01/11 02:48:10;;;;;;;1.80;1.70;;;;;;;-4.09;100.00;-23699.09;5031354;28;20722;-64
2024/01/11 02:50:35;;;;;;;2.30;2.20;;;;;;;-4.33;100.00;-23692.19;5031541;28;20210;-65
2024/01/11 02:53:01;;;;;;;2.80;2.60;;;;;;;-4.12;100.00;-23698.22;5031478;28;20561;-65
2024/01/11 02:55:26;;;;;;;1.20;1.20;;;;;;;-4.16;100.00;-23696.94;5031412;28;20236;-65
2024/01/11 02:57:52;;;;;;;1.83;1.73;;;;;;;-4.29;100.00;-23693.34;5031009;28;20198;-63
2024/01/11 03:00:17;;;;;;;1.80;1.70;;;;;;;-4.14;100.00;-23697.50;5030775;28;20269;-64
2024/01/11 03:02:43;;;;;;;2.20;2.00;;;;;;;-4.23;100.00;-23694.91;5029380;28;20615;-66
2024/01/11 03:05:08;;;;;;;1.83;1.73;;;;;;;-4.06;100.00;-23699.81;5029507;28;20234;-65
2024/01/11 03:07:34;;;;;;;2.33;1.87;;;;;;;-4.36;100.00;-23691.19;5030289;28;20256;-61
2024/01/11 03:09:59;;;;;;;2.07;1.73;;;;;;;-4.14;100.00;-23697.50;5033454;28;20194;-67
2024/01/11 03:12:26;;;;;;;2.03;1.93;;;;;;;-4.29;100.00;-23693.34;5029074;28;20687;-64
2024/01/11 03:14:51;;;;;;;1.87;1.77;;;;;;;-4.52;100.00;-23686.84;5029492;28;20171;-66
2024/01/11 03:17:17;;;;;;;1.30;1.30;;;;;;;-4.52;100.00;-23686.84;5031372;28;20175;-62
2024/01/11 03:19:42;;;;;;;2.40;2.30;;;;;;;-4.24;100.00;-23694.63;5031071;28;20623;-63
2024/01/11 03:22:08;;;;;;;1.80;1.70;;;;;;;-4.28;100.00;-23693.63;5031190;28;20301;-63
2024/01/11 03:24:37;;;;;;;1.80;1.70;;;;;;;-4.52;100.00;-23686.84;5031418;28;20175;-66
2024/01/11 03:27:02;;;;;;;3.00;2.80;;;;;;;-4.55;100.00;-23686.00;5031165;28;20205;-67
2024/01/11 03:29:28;;;;;;;4.93;1.90;;;;;;;-4.28;100.00;-23693.47;5030901;28;20314;-66
2024/01/11 03:31:53;;;;;;;1.73;1.63;;;;;;;-4.26;100.00;-23694.06;5030724;28;20210;-64
2024/01/11 03:34:19;;;;;;;2.00;1.90;;;;;;;-4.52;100.00;-23686.84;5031185;28;20172;-64
2024/01/11 03:36:44;;;;;;;1.73;1.63;;;;;;;-5.07;100.00;-23671.00;5031045;28;20636;-66
2024/01/11 03:39:10;;;;;;;2.53;2.37;;;;;;;-4.55;100.00;-23686.00;5030219;28;20179;-65
2024/01/11 03:41:35;;;;;;;1.87;1.73;;;;;;;-4.43;100.00;-23689.31;5030880;28;20270;-61
2024/01/11 03:44:01;;;;;;;2.17;2.00;;;;;;;-4.32;100.00;-23692.31;5031290;28;20594;-62
2024/01/11 03:46:27;;;;;;;1.70;1.60;;;;;;;-4.20;100.00;-23695.78;5029710;28;20283;-64
2024/01/11 03:48:53;;;;;;;1.40;1.30;;;;;;;-4.29;100.00;-23693.34;5031154;28;20168;-64
2024/01/11 03:51:18;;;;;;;1.60;1.50;;;;;;;-4.20;100.00;-23695.94;5030873;28;20690;-64
2024/01/11 03:53:43;;;;;;;1.70;1.60;;;;;;;-4.49;100.00;-23687.56;5030713;28;20261;-63
2024/01/11 03:56:09;;;;;;;1.50;1.40;;;;;;;-4.19;100.00;-23696.22;5031005;28;20178;-65
2024/01/11 03:58:39;;;;;;;1.63;1.53;;;;;;;-4.19;100.00;-23696.06;5030599;28;20171;-64
2024/01/11 04:01:04;;;;;;;2.83;2.07;;;;;;;-4.29;100.00;-23693.34;5030815;28;20184;-65
2024/01/11 04:03:29;;;;;;;1.83;1.73;;;;;;;-4.23;100.00;-23694.91;5030951;28;20292;-66
2024/01/11 04:05:55;;;;;;;1.60;1.50;;;;;;;-4.56;100.00;-23685.69;5031459;28;20250;-65
2024/01/11 04:08:20;;;;;;;1.90;1.80;;;;;;;-4.44;100.00;-23689.03;5031101;28;20263;-65
2024/01/11 04:10:46;;;;;;;1.60;1.50;;;;;;;-4.69;100.00;-23681.81;5030614;28;20203;-66
2024/01/11 04:13:11;;;;;;;1.60;1.50;;;;;;;-4.70;100.00;-23681.53;5043712;28;20182;-67
2024/01/11 04:15:37;;;;;;;1.73;1.63;;;;;;;-4.71;100.00;-23681.22;5030837;28;20644;-63
2024/01/11 04:18:03;;;;;;;1.57;1.47;;;;;;;-4.44;100.00;-23688.88;5030829;28;20179;-65
2024/01/11 04:20:28;;;;;;;1.20;1.20;;;;;;;-4.94;100.00;-23674.75;5030499;28;20187;-64
2024/01/11 04:22:54;;;;;;;2.37;2.27;;;;;;;-4.70;100.00;-23681.66;5030385;28;20232;-66
2024/01/11 04:25:20;;;;;;;1.43;1.33;;;;;;;-4.48;100.00;-23688.00;5029859;28;20190;-66
2024/01/11 04:27:45;;;;;;;1.87;1.77;;;;;;;-4.50;100.00;-23687.28;5030236;28;20171;-65
2024/01/11 04:30:11;;;;;;;2.07;1.97;;;;;;;-4.66;100.00;-23682.69;5030154;28;20218;-65
2024/01/11 04:32:36;;;;;;;1.63;1.53;;;;;;;-4.38;100.00;-23690.59;5033713;28;20220;-63
2024/01/11 04:35:02;;;;;;;2.57;1.83;;;;;;;-4.29;100.00;-23693.34;5033078;28;20191;-66
2024/01/11 04:37:28;;;;;;;2.23;2.03;;;;;;;-4.32;100.00;-23692.47;5042449;28;20338;-63
2024/01/11 04:39:53;;;;;;;1.30;1.30;;;;;;;-4.42;100.00;-23689.59;5033297;28;20183;-64
2024/01/11 04:42:21;;;;;;;1.70;1.60;;;;;;;-4.39;100.00;-23690.31;5042152;28;20178;-63
2024/01/11 04:44:46;;;;;;;2.03;1.93;;;;;;;-4.37;100.00;-23690.88;5034320;28;20314;-64
2024/01/11 04:47:11;;;;;;;2.03;1.93;;;;;;;-4.83;100.00;-23677.94;5034059;28;20256;-62
2024/01/11 04:49:37;;;;;;;1.80;1.70;;;;;;;-4.75;100.00;-23680.09;5032939;28;20661;-65
2024/01/11 04:52:03;;;;;;;2.20;2.10;;;;;;;-4.76;100.00;-23679.81;5041774;28;20223;-67
2024/01/11 04:54:28;;;;;;;1.97;1.87;;;;;;;-4.59;100.00;-23684.84;5033208;28;20266;-65
2024/01/11 04:56:54;;;;;;;2.13;2.03;;;;;;;-4.77;100.00;-23679.66;5034201;28;20180;-63
2024/01/11 04:59:19;;;;;;;1.63;1.53;;;;;;;-4.62;100.00;-23683.81;5033705;28;20289;-69
2024/01/11 05:01:46;;;;;;;2.67;2.47;;;;;;;-4.64;100.00;-23683.25;5033657;28;20584;-68
2024/01/11 05:04:11;;;;;;;1.93;1.83;;;;;;;-4.81;100.00;-23678.50;5033782;28;20631;-67
2024/01/11 05:06:36;;;;;;;1.80;1.70;;;;;;;-4.73;100.00;-23680.66;5033788;28;20207;-65
2024/01/11 05:09:04;;;;;;;2.50;2.30;;;;;;;-4.65;100.00;-23682.97;5033432;28;20175;-64
2024/01/11 05:11:30;;;;;;;2.60;2.43;;;;;;;-4.93;100.00;-23675.19;5032331;28;20627;-66
2024/01/11 05:13:55;;;;;;;1.40;1.30;;;;;;;-4.63;100.00;-23683.69;5032816;28;20180;-64
2024/01/11 05:16:22;;;;;;;2.60;2.40;;;;;;;-4.91;100.00;-23675.75;5032055;28;20285;-64
2024/01/11 05:18:48;;;;;;;1.60;1.50;;;;;;;-4.70;100.00;-23681.66;5044034;28;20228;-62
2024/01/11 05:21:13;;;;;;;2.80;2.60;;;;;;;-4.96;100.00;-23674.31;5036116;28;20169;-62
2024/01/11 05:23:40;;;;;;;2.63;2.43;;;;;;;-4.70;100.00;-23681.53;5041571;28;20179;-68
2024/01/11 05:26:06;;;;;;;2.07;1.97;;;;;;;-4.67;100.00;-23682.41;5033377;28;20186;-62
2024/01/11 05:28:31;;;;;;;2.00;1.90;;;;;;;-4.91;100.00;-23675.75;5033409;28;20156;-68
2024/01/11 05:30:56;;;;;;;1.90;1.80;;;;;;;-5.00;100.00;-23673.03;5032878;28;20197;-63
2024/01/11 05:33:22;;;;;;;6.43;2.07;;;;;;;-4.87;100.00;-23676.78;5033039;28;20319;-64
2024/01/11 05:35:47;;;;;;;1.93;1.83;;;;;;;-4.94;100.00;-23674.75;5033376;28;20190;-66
2024/01/11 05:38:12;;;;;;;1.60;1.50;;;;;;;-4.91;100.00;-23675.63;5032855;28;20619;-66
2024/01/11 05:40:38;;;;;;;1.50;1.40;;;;;;;-4.66;100.00;-23682.69;5033272;28;20175;-65
2024/01/11 05:43:03;;;;;;;2.00;1.90;;;;;;;-4.73;100.00;-23680.81;5032177;28;20180;-66
2024/01/11 05:45:29;;;;;;;1.97;1.87;;;;;;;-4.66;100.00;-23682.81;5033066;28;20171;-66
2024/01/11 05:47:54;;;;;;;2.27;1.60;;;;;;;-4.63;100.00;-23683.53;5032981;28;20236;-65
2024/01/11 05:50:19;;;;;;;1.40;1.30;;;;;;;-4.67;100.00;-23682.53;5033086;28;20199;-62
2024/01/11 05:52:45;;;;;;;2.13;2.03;;;;;;;-4.60;100.00;-23684.41;5032943;28;20171;-62
2024/01/11 05:55:10;;;;;;;2.30;2.10;;;;;;;-4.68;100.00;-23682.25;5032889;28;20569;-65
2024/01/11 05:57:36;;;;;;;1.80;1.70;;;;;;;-4.94;100.00;-23674.75;5031754;28;20248;-67
2024/01/11 06:00:01;;;;;;;1.40;1.30;;;;;;;-4.62;100.00;-23683.97;5032731;28;20175;-65
2024/01/11 06:02:27;;;;;;;1.50;1.40;;;;;;;-4.98;100.00;-23673.59;5032432;28;20163;-65
2024/01/11 06:04:52;;;;;;;2.63;2.30;;;;;;;-4.59;100.00;-23684.84;5032751;28;20251;-66
2024/01/11 06:07:18;;;;;;;2.13;1.93;;;;;;;-4.49;100.00;-23687.56;5031997;28;20553;-66
2024/01/11 06:09:43;;;;;;;2.03;1.87;;;;;;;-4.50;100.00;-23687.28;5032750;28;20555;-63
2024/01/11 06:12:09;;;;;;;1.73;1.63;;;;;;;-4.73;100.00;-23680.81;5031951;28;20573;-67
2024/01/11 06:14:34;;;;;;;1.50;1.40;;;;;;;-4.43;100.00;-23689.31;5032408;28;20168;-66
2024/01/11 06:17:00;;;;;;;1.83;1.73;;;;;;;-4.60;100.00;-23684.56;5032172;28;20183;-65
2024/01/11 06:19:25;;;;;;;1.67;1.47;;;;;;;-4.53;100.00;-23686.44;5032023;28;20254;-63
2024/01/11 06:21:51;;;;;;;1.70;1.60;;;;;;;-4.17;100.00;-23696.66;5035496;28;20175;-61
2024/01/11 06:24:16;;;;;;;1.30;1.30;;;;;;;-4.08;100.00;-23699.25;5033561;28;20179;-65
2024/01/11 06:26:41;;;;;;;2.33;2.23;;;;;;;-4.43;100.00;-23689.16;5032157;28;20247;-67
2024/01/11 06:29:07;;;;;;;2.53;2.33;;;;;;;-4.16;100.00;-23697.06;5032244;28;20185;-62
2024/01/11 06:31:33;;;;;;;2.17;2.07;;;;;;;-4.06;100.00;-23699.81;5031594;28;20249;-66
2024/01/11 06:33:58;;;;;;;1.73;1.63;;;;;;;-4.13;100.00;-23697.94;5032275;28;20352;-64
2024/01/11 06:36:24;;;;;;;1.47;1.37;;;;;;;-4.25;100.00;-23694.34;5031375;28;20171;-64
2024/01/11 06:38:49;;;;;;;3.03;2.47;;;;;;;-3.98;100.00;-23701.97;5030722;28;20257;-63
2024/01/11 06:41:14;;;;;;;1.93;1.83;;;;;;;-4.09;100.00;-23699.09;5030741;28;20194;-65
2024/01/11 06:43:40;;;;;;;1.70;1.60;;;;;;;-4.13;100.00;-23697.81;5031557;28;20187;-65
2024/01/11 06:46:06;;;;;;;2.63;2.40;;;;;;;-3.81;100.00;-23707.00;5031595;28;20179;-64
2024/01/11 06:48:32;;;;;;;2.77;2.43;;;;;;;-3.73;100.00;-23709.16;5031503;28;20182;-66
2024/01/11 06:50:57;;;;;;;1.67;1.57;;;;;;;-3.82;100.00;-23706.56;5031500;28;20204;-65
2024/01/11 06:53:23;;;;;;;3.93;2.80;;;;;;;-3.58;100.00;-23713.47;5031026;28;20183;-65
2024/01/11 06:55:48;;;;;;;1.40;1.30;;;;;;;-3.38;100.00;-23719.25;5031494;28;20267;-66
2024/01/11 06:58:15;;;;;;;1.57;1.47;;;;;;;-3.58;100.00;-23713.47;5031758;28;20551;-65
2024/01/11 07:00:42;;;;;;;2.10;2.00;;;;;;;-3.15;100.00;-23725.72;5031131;28;20180;-62
2024/01/11 07:03:10;;;;;;;1.77;1.67;;;;;;;-3.16;100.00;-23725.56;5031224;28;20173;-65
2024/01/11 07:05:35;;;;;;;2.27;2.07;;;;;;;-3.27;100.00;-23722.25;5031189;28;20237;-64
2024/01/11 07:08:01;;;;;;;2.03;1.93;;;;;;;-3.00;100.00;-23730.03;5031271;28;20186;-65
2024/01/11 07:10:27;;;;;;;1.57;1.47;;;;;;;-2.89;100.00;-23733.03;5030851;28;20206;-64
2024/01/11 07:12:52;;;;;;;4.27;2.13;;;;;;;-2.83;100.00;-23734.78;5031416;28;20178;-66
2024/01/11 07:15:17;;;;;;;1.90;1.80;;;;;;;-2.81;100.00;-23735.47;5030845;28;20561;-64
2024/01/11 07:17:43;;;;;;;1.77;1.67;;;;;;;-2.95;100.00;-23729.50;5031003;28;20187;-68
2024/01/11 07:20:10;;;;;;;2.67;2.40;;;;;;;-2.70;100.00;-23738.66;5031080;28;20167;-64
2024/01/11 07:22:35;;;;;;;2.07;1.97;;;;;;;-2.55;100.00;-23742.66;5029500;28;20614;-64
2024/01/11 07:25:01;;;;;;;1.30;1.30;;;;;;;-2.50;100.00;-23744.09;5030395;28;20190;-63
2024/01/11 07:27:26;;;;;;;1.87;1.67;;;;;;;-2.37;100.00;-23747.84;5036912;28;20642;-67
2024/01/11 07:29:51;;;;;;;2.53;2.37;;;;;;;-2.42;100.00;-23432.75;5029223;28;20171;-65
2024/01/11 07:32:17;;;;;;;2.03;1.93;;;;;;;-2.15;100.00;-22815.97;5030828;28;20222;-64
2024/01/11 07:34:42;;;;;;;1.73;1.63;;;;;;;-2.39;100.00;-22497.38;5030576;28;20412;-64
2024/01/11 07:37:08;;;;;;;1.83;1.73;;;;;;;-2.30;100.00;-22187.63;5030695;28;20171;-67
2024/01/11 07:39:34;;;;;;;1.83;1.73;;;;;;;-2.04;100.00;-21257.44;5030507;28;20171;-64
2024/01/11 07:41:59;;;;;;;1.33;1.33;;;;;;;-2.02;100.00;-20320.63;5030678;28;20543;-66
2024/01/11 07:44:25;;;;;;;1.60;1.50;;;;;;;-1.82;100.00;-19699.91;5030284;28;20246;-66
2024/01/11 07:46:50;;;;;;;3.40;1.53;;;;;;;-1.83;100.00;-19387.16;5030387;28;20282;-69
2024/01/11 07:49:15;;;;;;;2.13;1.83;;;;;;;-1.97;100.00;-19696.63;5030750;28;20171;-65
2024/01/11 07:51:41;;;;;;;3.47;1.77;;;;;;;-1.91;100.00;-19697.94;5030097;28;20210;-66
2024/01/11 07:54:06;;;;;;;1.83;1.73;;;;;;;-1.57;100.00;-19705.28;5030582;28;20661;-66
2024/01/11 07:56:32;;;;;;;1.63;1.53;;;;;;;-1.69;100.00;-19077.19;5030372;28;20168;-63
2024/01/11 07:58:57;;;;;;;1.10;1.10;;;;;;;-1.48;100.00;-19394.44;5030661;28;20175;-64
2024/01/11 08:01:23;;;;;;;1.90;1.80;;;;;;;-1.21;100.00;-19087.22;5030581;28;20179;-68
2024/01/11 08:03:51;;;;;;;1.23;1.23;;;;;;;-1.53;100.00;-18454.88;5030410;28;20548;-65
2024/01/11 08:06:17;;;;;;;1.20;1.20;;;;;;;-1.56;100.00;-19392.72;5029075;28;20156;-65
2024/01/11 08:08:43;;;;;;;1.63;1.53;;;;;;;-1.44;100.00;-20333.75;5030309;28;20639;-64
2024/01/11 08:11:09;;;;;;;1.20;1.20;;;;;;;-1.05;100.00;-21281.50;5030346;28;20295;-66
2024/01/11 08:13:35;;;;;;;2.17;2.07;;;;;;;-1.19;100.00;-21590.88;5029269;28;20194;-66
2024/01/11 08:16:04;;;;;;;3.07;2.77;;;;;;;-0.93;100.00;-21597.38;5030333;28;20191;-67
2024/01/11 08:18:33;;;;;;;1.87;1.77;;;;;;;-0.78;100.00;-21287.88;5030151;28;20170;-69
2024/01/11 08:20:58;;;;;;;1.60;1.50;;;;;;;-0.73;100.00;-21289.22;5030222;28;20185;-65
2024/01/11 08:23:23;;;;;;;1.77;1.67;;;;;;;-0.67;100.00;-21290.59;5029637;28;20180;-66
2024/01/11 08:25:49;;;;;;;1.37;1.37;;;;;;;-0.61;100.00;-20979.06;5028399;28;20181;-64
2024/01/11 08:28:14;;;;;;;1.33;1.30;;;;;;;-0.73;100.00;-20976.16;5028228;28;20644;-62
2024/01/11 08:30:40;;;;;;;1.67;1.57;;;;;;;-0.48;100.00;-21295.25;5033063;28;20272;-63
2024/01/11 08:33:06;;;;;;;1.73;1.63;;;;;;;-0.30;100.00;-21299.66;5028138;28;20578;-63
2024/01/11 08:35:32;;;;;;;2.00;1.90;;;;;;;-0.15;100.00;-20989.84;5028075;28;20174;-66
2024/01/11 08:37:57;;;;;;;1.93;1.83;;;;;;;-0.29;100.00;-20673.28;5028794;28;20242;-66
2024/01/11 08:40:23;;;;;;;1.17;1.17;;;;;;;-0.34;100.00;-20045.34;5029910;28;20190;-67
2024/01/11 08:42:48;;;;;;;1.87;1.77;;;;;;;-0.17;100.00;-20362.69;5030144;28;20318;-65
2024/01/11 08:45:17;;;;;;;1.90;1.80;;;;;;;0.11;100.00;-19428.16;5030680;28;20202;-66
2024/01/11 08:47:44;;;;;;;1.50;1.40;;;;;;;0.13;100.00;-17859.78;5030208;28;20186;-68
2024/01/11 08:50:15;;;;;;;4.23;2.50;;;;;;;0.22;100.00;-18489.13;5030471;28;20264;-69
2024/01/11 08:52:42;;;;;;;1.93;1.83;;;;;;;0.09;100.00;-18486.66;5030360;28;20186;-66
2024/01/11 08:55:08;;;;;;;1.67;1.57;;;;;;;0.25;100.00;-18803.53;5029955;28;20171;-65
2024/01/11 08:57:35;;;;;;;1.80;1.70;;;;;;;0.47;100.00;-15353.13;5030442;28;20262;-67
2024/01/11 09:00:02;;;;;;;1.67;1.57;;;;;;;0.38;100.00;-18178.50;5029909;28;20175;-67
2024/01/11 09:02:27;;;;;;;1.40;1.33;;;;;;;0.67;100.00;-17555.78;5029792;28;20182;-63
2024/01/11 09:04:52;;;;;;;2.63;2.37;;;;;;;0.72;100.00;-16614.09;5030296;28;20502;-67
2024/01/11 09:07:18;;;;;;;1.60;1.50;;;;;;;0.94;100.00;-17874.88;5030504;28;20171;-68
2024/01/11 09:09:44;;;;;;;1.93;1.50;;;;;;;0.75;100.00;-18813.69;5030414;28;20175;-67
2024/01/11 09:12:09;;;;;;;1.70;1.60;;;;;;;1.14;100.00;-18507.16;5030146;28;20226;-64
2024/01/11 09:14:35;;;;;;;3.57;2.27;;;;;;;1.15;100.00;-17878.81;5030336;28;20175;-66
2024/01/11 09:17:01;;;;;;;1.60;1.50;;;;;;;0.98;100.00;-13787.63;5031217;28;20183;-66
2024/01/11 09:19:26;;;;;;;2.70;2.50;;;;;;;1.19;100.00;-15048.94;5034538;28;20176;-66
2024/01/11 09:21:51;;;;;;;2.00;1.90;;;;;;;1.19;100.00;-13790.22;5034005;28;20270;-66
2024/01/11 09:24:17;;;;;;;1.40;1.30;;;;;;;1.44;100.00;-14422.84;5033471;28;20176;-65
2024/01/11 09:26:42;;;;;;;2.60;1.73;;;;;;;1.56;100.00;-14739.28;5033810;28;20618;-65
2024/01/11 09:29:07;;;;;;;2.43;1.80;;;;;;;1.61;100.00;-15684.44;5032812;28;20637;-65
2024/01/11 09:31:34;;;;;;;2.00;1.90;;;;;;;1.47;100.00;-16311.69;5036582;28;20816;-64
2024/01/11 09:33:59;;;;;;;1.77;1.67;;;;;;;1.66;100.00;-12220.31;5033117;28;20258;-63
2024/01/11 09:36:24;;;;;;;1.60;1.50;;;;;;;1.83;100.00;-11906.63;5033557;28;20238;-63
2024/01/11 09:38:50;;;;;;;1.73;1.63;;;;;;;2.02;100.00;-13484.75;5032842;28;20171;-66
2024/01/11 09:41:16;;;;;;;1.73;1.63;;;;;;;2.01;100.00;-12223.56;5032437;28;20214;-64
2024/01/11 09:43:42;;;;;;;1.53;1.43;;;;;;;2.25;100.00;-11910.28;5032930;28;20563;-67
2024/01/11 09:46:10;;;;;;;1.27;1.27;;;;;;;2.09;100.00;-4962.47;5032521;28;20183;-63
2024/01/11 09:48:39;;;;;;;1.50;1.40;;;;;;;2.02;100.00;-2749.63;5033238;28;20639;-64
2024/01/11 09:51:09;;;;;;;1.63;1.53;;;;;;;2.27;100.00;-1798.72;5032917;28;20203;-69
2024/01/11 09:53:38;;;;;;;2.23;2.00;;;;;;;2.46;100.00;-3696.16;5032587;28;20168;-63
2024/01/11 09:56:07;;;;;;;1.80;1.70;;;;;;;2.54;100.00;-1796.59;5032316;28;20638;-64
2024/01/11 09:58:36;;;;;;;1.33;1.30;;;;;;;2.43;100.00;419.25;5032302;28;20220;-65
2024/01/11 10:01:02;;;;;;;1.53;1.43;;;;;;;2.66;100.00;2640.91;5031935;28;20212;-66
2024/01/11 10:03:28;;;;;;;1.73;1.60;;;;;;;2.74;100.00;2642.06;5031945;28;20178;-67
2024/01/11 10:05:59;;;;;;;1.50;1.40;;;;;;;2.95;100.00;2328.06;5032366;28;20249;-64
2024/01/11 10:08:25;;;;;;;1.57;1.47;;;;;;;2.71;100.00;6767.06;5032146;28;20155;-67
2024/01/11 10:10:50;;;;;;;1.10;1.10;;;;;;;2.65;100.00;7083.25;5032090;28;20206;-67
2024/01/11 10:13:16;;;;;;;1.63;1.53;;;;;;;2.58;100.00;9940.41;5032127;28;20179;-65
2024/01/11 10:15:45;;;;;;;1.50;1.40;;;;;;;2.83;100.00;12491.50;5032229;28;20186;-63
2024/01/11 10:18:12;;;;;;;1.30;1.30;;;;;;;2.93;100.00;8360.63;5032178;28;20182;-65
2024/01/11 10:20:37;;;;;;;2.63;2.27;;;;;;;2.88;100.00;7088.50;5032137;28;20266;-63
2024/01/11 10:23:03;;;;;;;1.93;1.83;;;;;;;2.99;100.00;12814.69;5032302;28;20266;-69
2024/01/11 10:25:29;;;;;;;2.13;1.93;;;;;;;3.10;100.00;11863.56;5031918;28;20635;-66
2024/01/11 10:27:55;;;;;;;2.20;2.00;;;;;;;2.90;100.00;9949.06;5031668;28;20175;-63
2024/01/11 10:30:22;;;;;;;1.20;1.20;;;;;;;3.12;100.00;11227.59;5031318;28;20647;-64
2024/01/11 10:32:48;;;;;;;1.70;1.60;;;;;;;3.30;100.00;11869.56;5031483;28;20312;-66
2024/01/11 10:35:14;;;;;;;2.03;1.83;;;;;;;3.24;100.00;13778.09;5036542;28;20176;-68
2024/01/11 10:37:41;;;;;;;1.57;1.47;;;;;;;3.20;100.00;15687.91;5031607;28;20240;-67
2024/01/11 10:40:15;;;;;;;1.97;1.87;;;;;;;3.15;100.00;22383.88;5031533;28;20203;-63
2024/01/11 10:42:45;;;;;;;1.50;1.40;;;;;;;3.47;100.00;22080.16;5031893;28;20182;-65
2024/01/11 10:45:17;;;;;;;1.83;1.73;;;;;;;3.59;100.00;25601.41;5031654;28;20203;-66
2024/01/11 10:47:56;;;;;;;2.07;1.87;;;;;;;3.46;100.00;28153.91;5031417;28;20187;-69
2024/01/11 10:50:23;;;;;;;3.70;2.20;;;;;;;3.81;100.00;27853.72;5031876;28;20643;-69
2024/01/11 10:53:17;;;;;;;1.90;1.80;;;;;;;3.89;100.00;28818.72;5031469;28;20171;-67
2024/01/11 10:55:44;;;;;;;2.57;2.37;;;;;;;3.60;100.00;33927.75;5031724;28;20271;-63
2024/01/11 10:58:11;;;;;;;1.50;1.40;;;;;;;3.67;100.00;31047.56;5031576;28;20179;-66
2024/01/11 11:00:36;;;;;;;2.90;2.10;;;;;;;3.77;100.00;30413.06;5031901;28;20262;-63
2024/01/11 11:03:04;;;;;;;1.70;1.60;;;;;;;3.97;100.00;33952.78;5029776;28;20810;-66
2024/01/11 11:05:30;;;;;;;2.10;2.00;;;;;;;3.83;100.00;34584.50;5031273;28;20187;-64
2024/01/11 11:07:57;;;;;;;2.40;2.30;;;;;;;4.12;100.00;36530.69;5029751;28;20183;-66
2024/01/11 11:10:26;;;;;;;1.83;1.73;;;;;;;3.73;100.00;38108.00;5030705;28;20613;-63
2024/01/11 11:12:54;;;;;;;1.70;1.60;;;;;;;4.25;100.00;35897.72;5031194;28;20633;-67